sensor_id;sensor_type;location;lat;lon;timestamp;pressure;altitude;pressure_sealevel;temperature;humidity
36834;BME280;48003;52.084;5.224;2023-04-04T00:01:31;103139.00000000001;;;6.99;54.63
36834;BME280;48003;52.084;5.224;2023-04-04T00:03:07;103134.99999999999;;;6.95;54.7
36834;BME280;48003;52.084;5.224;2023-04-04T00:06:20;103131.0;;;6.9;54.87
36834;BME280;48003;52.084;5.224;2023-04-04T00:07:56;103132.0;;;6.81;54.29
36834;BME280;48003;52.084;5.224;2023-04-04T00:09:32;103133.0;;;6.7;54.53
36834;BME280;48003;52.084;5.224;2023-04-04T00:12:44;103133.99999999999;;;6.66;55.18
36834;BME280;48003;52.084;5.224;2023-04-04T00:14:21;103132.0;;;6.67;55.0
36834;BME280;48003;52.084;5.224;2023-04-04T00:15:57;103131.0;;;6.62;54.76
36834;BME280;48003;52.084;5.224;2023-04-04T00:17:33;103133.0;;;6.55;55.28
36834;BME280;48003;52.084;5.224;2023-04-04T00:20:45;103124.0;;;6.48;55.54
36834;BME280;48003;52.084;5.224;2023-04-04T00:22:21;103123.0;;;6.42;55.45
36834;BME280;48003;52.084;5.224;2023-04-04T00:23:58;103117.0;;;6.42;55.58
36834;BME280;48003;52.084;5.224;2023-04-04T00:27:10;103117.0;;;6.43;55.59
36834;BME280;48003;52.084;5.224;2023-04-04T00:28:46;103117.0;;;6.46;55.58
36834;BME280;48003;52.084;5.224;2023-04-04T00:30:22;103114.00000000001;;;6.43;55.49
36834;BME280;48003;52.084;5.224;2023-04-04T00:33:34;103113.00000000001;;;6.37;55.79
36834;BME280;48003;52.084;5.224;2023-04-04T00:35:11;103106.0;;;6.33;55.85
36834;BME280;48003;52.084;5.224;2023-04-04T00:36:47;103103.0;;;6.27;56.19
36834;BME280;48003;52.084;5.224;2023-04-04T00:38:23;103099.0;;;6.26;55.87
36834;BME280;48003;52.084;5.224;2023-04-04T00:41:35;103097.0;;;6.24;56.08
36834;BME280;48003;52.084;5.224;2023-04-04T00:43:12;103099.0;;;6.25;55.52
36834;BME280;48003;52.084;5.224;2023-04-04T00:44:50;103102.0;;;6.26;56.19
36834;BME280;48003;52.084;5.224;2023-04-04T00:48:03;103104.0;;;6.25;55.83
36834;BME280;48003;52.084;5.224;2023-04-04T00:49:39;103105.0;;;6.23;56.13
36834;BME280;48003;52.084;5.224;2023-04-04T00:51:15;103100.0;;;6.23;56.62
36834;BME280;48003;52.084;5.224;2023-04-04T00:54:28;103101.0;;;6.2;56.34
36834;BME280;48003;52.084;5.224;2023-04-04T00:56:08;103096.0;;;6.17;56.8
36834;BME280;48003;52.084;5.224;2023-04-04T00:57:44;103101.0;;;6.16;56.57
36834;BME280;48003;52.084;5.224;2023-04-04T00:59:21;103101.0;;;6.12;56.7
36834;BME280;48003;52.084;5.224;2023-04-04T01:02:35;103102.0;;;6.14;56.6
36834;BME280;48003;52.084;5.224;2023-04-04T01:04:11;103100.0;;;6.17;56.48
36834;BME280;48003;52.084;5.224;2023-04-04T01:05:47;103100.0;;;6.16;56.42
36834;BME280;48003;52.084;5.224;2023-04-04T01:09:01;103102.0;;;6.11;56.71
36834;BME280;48003;52.084;5.224;2023-04-04T01:10:38;103101.0;;;6.08;56.92
36834;BME280;48003;52.084;5.224;2023-04-04T01:12:15;103098.0;;;6.04;56.9
36834;BME280;48003;52.084;5.224;2023-04-04T01:15:28;103101.0;;;6.02;57.4
36834;BME280;48003;52.084;5.224;2023-04-04T01:17:04;103099.0;;;5.99;57.14
36834;BME280;48003;52.084;5.224;2023-04-04T01:18:41;103095.0;;;5.97;57.13
36834;BME280;48003;52.084;5.224;2023-04-04T01:20:22;103093.0;;;5.98;56.28
36834;BME280;48003;52.084;5.224;2023-04-04T01:23:57;103093.0;;;5.99;56.86
36834;BME280;48003;52.084;5.224;2023-04-04T01:25:34;103090.00000000001;;;5.95;57.01
36834;BME280;48003;52.084;5.224;2023-04-04T01:27:10;103091.00000000001;;;5.94;57.13
36834;BME280;48003;52.084;5.224;2023-04-04T01:28:47;103092.0;;;5.93;57.09
36834;BME280;48003;52.084;5.224;2023-04-04T01:32:07;103097.0;;;5.94;57.45
36834;BME280;48003;52.084;5.224;2023-04-04T01:33:53;103094.0;;;5.92;56.91
36834;BME280;48003;52.084;5.224;2023-04-04T01:35:39;103097.0;;;5.91;57.37
36834;BME280;48003;52.084;5.224;2023-04-04T01:37:26;103095.0;;;5.84;57.95
36834;BME280;48003;52.084;5.224;2023-04-04T01:39:11;103101.0;;;5.81;57.75
36834;BME280;48003;52.084;5.224;2023-04-04T01:42:36;103098.0;;;5.83;57.41
36834;BME280;48003;52.084;5.224;2023-04-04T01:44:15;103098.0;;;5.79;58.04
36834;BME280;48003;52.084;5.224;2023-04-04T01:47:28;103104.0;;;5.74;58.55
36834;BME280;48003;52.084;5.224;2023-04-04T01:50:39;103105.0;;;5.74;58.17
36834;BME280;48003;52.084;5.224;2023-04-04T01:52:15;103099.0;;;5.8;58.16
36834;BME280;48003;52.084;5.224;2023-04-04T01:53:52;103096.0;;;5.78;58.02
36834;BME280;48003;52.084;5.224;2023-04-04T01:57:04;103093.0;;;5.72;58.55
36834;BME280;48003;52.084;5.224;2023-04-04T01:58:40;103098.0;;;5.66;58.68
36834;BME280;48003;52.084;5.224;2023-04-04T02:00:16;103098.0;;;5.63;58.52
36834;BME280;48003;52.084;5.224;2023-04-04T02:03:29;103097.0;;;5.63;58.38
36834;BME280;48003;52.084;5.224;2023-04-04T02:05:05;103092.0;;;5.65;58.88
36834;BME280;48003;52.084;5.224;2023-04-04T02:06:42;103095.0;;;5.65;58.51
36834;BME280;48003;52.084;5.224;2023-04-04T02:09:54;103091.00000000001;;;5.64;59.11
36834;BME280;48003;52.084;5.224;2023-04-04T02:11:31;103090.00000000001;;;5.6;59.17
36834;BME280;48003;52.084;5.224;2023-04-04T02:13:06;103098.0;;;5.53;59.7
36834;BME280;48003;52.084;5.224;2023-04-04T02:14:42;103093.0;;;5.51;59.39
36834;BME280;48003;52.084;5.224;2023-04-04T02:17:55;103095.0;;;5.5;59.32
36834;BME280;48003;52.084;5.224;2023-04-04T02:19:31;103099.0;;;5.48;59.36
36834;BME280;48003;52.084;5.224;2023-04-04T02:21:07;103102.0;;;5.47;59.26
36834;BME280;48003;52.084;5.224;2023-04-04T02:24:25;103104.0;;;5.45;59.59
36834;BME280;48003;52.084;5.224;2023-04-04T02:26:01;103106.0;;;5.44;59.83
36834;BME280;48003;52.084;5.224;2023-04-04T02:27:37;103103.0;;;5.45;59.83
36834;BME280;48003;52.084;5.224;2023-04-04T02:29:14;103100.0;;;5.45;59.78
36834;BME280;48003;52.084;5.224;2023-04-04T02:32:26;103101.0;;;5.41;59.69
36834;BME280;48003;52.084;5.224;2023-04-04T02:34:02;103098.0;;;5.41;59.8
36834;BME280;48003;52.084;5.224;2023-04-04T02:35:39;103100.0;;;5.36;59.75
36834;BME280;48003;52.084;5.224;2023-04-04T02:38:51;103102.0;;;5.35;59.9
36834;BME280;48003;52.084;5.224;2023-04-04T02:40:27;103101.0;;;5.33;60.12
36834;BME280;48003;52.084;5.224;2023-04-04T02:42:03;103102.0;;;5.34;60.56
36834;BME280;48003;52.084;5.224;2023-04-04T02:45:16;103095.0;;;5.33;60.65
36834;BME280;48003;52.084;5.224;2023-04-04T02:46:52;103092.0;;;5.28;60.71
36834;BME280;48003;52.084;5.224;2023-04-04T02:48:28;103091.00000000001;;;5.23;60.94
36834;BME280;48003;52.084;5.224;2023-04-04T02:51:41;103086.99999999999;;;5.2;61.07
36834;BME280;48003;52.084;5.224;2023-04-04T02:53:17;103089.00000000001;;;5.21;61.18
36834;BME280;48003;52.084;5.224;2023-04-04T02:54:53;103084.99999999999;;;5.17;61.11
36834;BME280;48003;52.084;5.224;2023-04-04T02:56:29;103080.0;;;5.17;61.27
36834;BME280;48003;52.084;5.224;2023-04-04T02:59:42;103082.0;;;5.13;61.18
36834;BME280;48003;52.084;5.224;2023-04-04T03:01:18;103071.0;;;5.13;61.61
36834;BME280;48003;52.084;5.224;2023-04-04T03:02:55;103073.0;;;5.12;61.39
36834;BME280;48003;52.084;5.224;2023-04-04T03:06:07;103071.0;;;5.09;61.05
36834;BME280;48003;52.084;5.224;2023-04-04T03:07:43;103067.0;;;5.05;61.37
36834;BME280;48003;52.084;5.224;2023-04-04T03:09:20;103063.00000000001;;;5.08;61.46
36834;BME280;48003;52.084;5.224;2023-04-04T03:12:32;103065.00000000001;;;5.12;61.66
36834;BME280;48003;52.084;5.224;2023-04-04T03:14:08;103069.0;;;5.14;61.0
36834;BME280;48003;52.084;5.224;2023-04-04T03:15:44;103069.0;;;5.09;61.02
36834;BME280;48003;52.084;5.224;2023-04-04T03:18:56;103070.0;;;5.09;60.94
36834;BME280;48003;52.084;5.224;2023-04-04T03:20:33;103071.0;;;5.07;61.28
36834;BME280;48003;52.084;5.224;2023-04-04T03:22:09;103074.0;;;5.03;61.38
36834;BME280;48003;52.084;5.224;2023-04-04T03:23:45;103076.0;;;5.0;61.65
36834;BME280;48003;52.084;5.224;2023-04-04T03:26:58;103079.0;;;4.97;61.52
36834;BME280;48003;52.084;5.224;2023-04-04T03:28:34;103072.0;;;4.97;61.73
36834;BME280;48003;52.084;5.224;2023-04-04T03:30:11;103072.0;;;4.96;61.42
36834;BME280;48003;52.084;5.224;2023-04-04T03:33:24;103070.0;;;4.95;61.79
36834;BME280;48003;52.084;5.224;2023-04-04T03:35:00;103065.00000000001;;;4.93;61.73
36834;BME280;48003;52.084;5.224;2023-04-04T03:36:36;103065.00000000001;;;4.91;61.7
36834;BME280;48003;52.084;5.224;2023-04-04T03:39:48;103068.0;;;4.91;61.95
36834;BME280;48003;52.084;5.224;2023-04-04T03:41:25;103066.00000000001;;;4.88;61.87
36834;BME280;48003;52.084;5.224;2023-04-04T03:43:01;103061.99999999999;;;4.88;62.0
36834;BME280;48003;52.084;5.224;2023-04-04T03:44:38;103059.99999999999;;;4.87;62.34
36834;BME280;48003;52.084;5.224;2023-04-04T03:49:27;103065.00000000001;;;4.84;62.08
36834;BME280;48003;52.084;5.224;2023-04-04T03:51:03;103065.00000000001;;;4.83;62.07
36834;BME280;48003;52.084;5.224;2023-04-04T03:54:15;103064.00000000001;;;4.83;62.11
36834;BME280;48003;52.084;5.224;2023-04-04T03:55:54;103066.00000000001;;;4.82;62.21
36834;BME280;48003;52.084;5.224;2023-04-04T03:57:31;103068.0;;;4.8;62.16
36834;BME280;48003;52.084;5.224;2023-04-04T04:00:43;103073.0;;;4.78;62.15
36834;BME280;48003;52.084;5.224;2023-04-04T04:02:19;103072.0;;;4.76;62.27
36834;BME280;48003;52.084;5.224;2023-04-04T04:03:55;103070.0;;;4.82;62.3
36834;BME280;48003;52.084;5.224;2023-04-04T04:05:31;103067.0;;;4.82;62.47
36834;BME280;48003;52.084;5.224;2023-04-04T04:08:44;103067.0;;;4.78;62.54
36834;BME280;48003;52.084;5.224;2023-04-04T04:10:21;103071.0;;;4.78;62.49
36834;BME280;48003;52.084;5.224;2023-04-04T04:11:57;103074.0;;;4.75;62.35
36834;BME280;48003;52.084;5.224;2023-04-04T04:15:10;103074.0;;;4.72;62.59
36834;BME280;48003;52.084;5.224;2023-04-04T04:16:46;103076.0;;;4.72;62.7
36834;BME280;48003;52.084;5.224;2023-04-04T04:18:22;103074.0;;;4.71;62.57
36834;BME280;48003;52.084;5.224;2023-04-04T04:21:35;103077.0;;;4.74;62.97
36834;BME280;48003;52.084;5.224;2023-04-04T04:23:11;103080.0;;;4.67;63.1
36834;BME280;48003;52.084;5.224;2023-04-04T04:24:47;103076.0;;;4.62;63.09
36834;BME280;48003;52.084;5.224;2023-04-04T04:26:23;103079.0;;;4.63;63.33
36834;BME280;48003;52.084;5.224;2023-04-04T04:29:37;103075.0;;;4.55;63.57
36834;BME280;48003;52.084;5.224;2023-04-04T04:31:13;103077.0;;;4.57;63.6
36834;BME280;48003;52.084;5.224;2023-04-04T04:32:49;103070.0;;;4.5;63.67
36834;BME280;48003;52.084;5.224;2023-04-04T04:36:02;103075.0;;;4.46;63.51
36834;BME280;48003;52.084;5.224;2023-04-04T04:37:39;103075.0;;;4.5;63.66
36834;BME280;48003;52.084;5.224;2023-04-04T04:39:15;103076.0;;;4.5;63.62
36834;BME280;48003;52.084;5.224;2023-04-04T04:42:28;103072.0;;;4.53;63.66
36834;BME280;48003;52.084;5.224;2023-04-04T04:44:04;103080.0;;;4.53;63.66
36834;BME280;48003;52.084;5.224;2023-04-04T04:45:40;103074.0;;;4.49;63.85
36834;BME280;48003;52.084;5.224;2023-04-04T04:48:52;103075.0;;;4.49;63.83
36834;BME280;48003;52.084;5.224;2023-04-04T04:50:28;103080.0;;;4.51;63.79
36834;BME280;48003;52.084;5.224;2023-04-04T04:52:04;103083.0;;;4.5;64.13
36834;BME280;48003;52.084;5.224;2023-04-04T04:53:41;103088.00000000001;;;4.49;63.97
36834;BME280;48003;52.084;5.224;2023-04-04T04:56:53;103089.00000000001;;;4.5;64.09
36834;BME280;48003;52.084;5.224;2023-04-04T04:58:29;103092.0;;;4.49;64.14
36834;BME280;48003;52.084;5.224;2023-04-04T05:00:06;103097.0;;;4.5;64.02
36834;BME280;48003;52.084;5.224;2023-04-04T05:03:18;103100.0;;;4.49;64.3
36834;BME280;48003;52.084;5.224;2023-04-04T05:04:55;103100.0;;;4.46;64.24
36834;BME280;48003;52.084;5.224;2023-04-04T05:06:31;103098.0;;;4.47;64.33
36834;BME280;48003;52.084;5.224;2023-04-04T05:09:43;103095.0;;;4.49;64.27
36834;BME280;48003;52.084;5.224;2023-04-04T05:11:19;103095.0;;;4.45;64.16
36834;BME280;48003;52.084;5.224;2023-04-04T05:12:56;103095.0;;;4.45;64.19
36834;BME280;48003;52.084;5.224;2023-04-04T05:14:32;103095.0;;;4.45;64.16
36834;BME280;48003;52.084;5.224;2023-04-04T05:17:45;103091.00000000001;;;4.45;64.16
36834;BME280;48003;52.084;5.224;2023-04-04T05:19:21;103093.0;;;4.42;64.03
36834;BME280;48003;52.084;5.224;2023-04-04T05:20:57;103093.0;;;4.39;64.09
36834;BME280;48003;52.084;5.224;2023-04-04T05:24:09;103090.00000000001;;;4.33;64.05
36834;BME280;48003;52.084;5.224;2023-04-04T05:25:47;103092.0;;;4.33;64.47
36834;BME280;48003;52.084;5.224;2023-04-04T05:27:23;103089.00000000001;;;4.32;64.67
36834;BME280;48003;52.084;5.224;2023-04-04T05:30:36;103093.0;;;4.3;64.69
36834;BME280;48003;52.084;5.224;2023-04-04T05:32:12;103095.0;;;4.28;64.52
36834;BME280;48003;52.084;5.224;2023-04-04T05:33:48;103092.0;;;4.32;64.72
36834;BME280;48003;52.084;5.224;2023-04-04T05:37:00;103093.0;;;4.32;64.63
36834;BME280;48003;52.084;5.224;2023-04-04T05:38:36;103092.0;;;4.32;64.58
36834;BME280;48003;52.084;5.224;2023-04-04T05:40:13;103095.0;;;4.32;64.69
36834;BME280;48003;52.084;5.224;2023-04-04T05:41:49;103097.0;;;4.33;64.77
36834;BME280;48003;52.084;5.224;2023-04-04T05:45:01;103097.0;;;4.32;64.77
36834;BME280;48003;52.084;5.224;2023-04-04T05:46:37;103092.0;;;4.37;64.77
36834;BME280;48003;52.084;5.224;2023-04-04T05:48:13;103099.0;;;4.37;64.69
36834;BME280;48003;52.084;5.224;2023-04-04T05:51:26;103100.0;;;4.37;64.77
36834;BME280;48003;52.084;5.224;2023-04-04T05:53:02;103099.0;;;4.37;64.92
36834;BME280;48003;52.084;5.224;2023-04-04T05:54:38;103102.0;;;4.42;64.72
36834;BME280;48003;52.084;5.224;2023-04-04T05:57:50;103106.0;;;4.39;64.47
36834;BME280;48003;52.084;5.224;2023-04-04T05:59:26;103104.0;;;4.41;64.64
36834;BME280;48003;52.084;5.224;2023-04-04T06:01:05;103105.0;;;4.43;64.66
36834;BME280;48003;52.084;5.224;2023-04-04T06:02:42;103102.0;;;4.45;64.73
36834;BME280;48003;52.084;5.224;2023-04-04T06:05:54;103105.0;;;4.47;64.58
36834;BME280;48003;52.084;5.224;2023-04-04T06:07:30;103105.0;;;4.47;64.69
36834;BME280;48003;52.084;5.224;2023-04-04T06:09:06;103103.0;;;4.47;64.74
36834;BME280;48003;52.084;5.224;2023-04-04T06:12:19;103102.0;;;4.45;64.74
36834;BME280;48003;52.084;5.224;2023-04-04T06:13:55;103103.0;;;4.46;64.69
36834;BME280;48003;52.084;5.224;2023-04-04T06:15:31;103104.0;;;4.49;64.6
36834;BME280;48003;52.084;5.224;2023-04-04T06:18:43;103098.0;;;4.53;64.63
36834;BME280;48003;52.084;5.224;2023-04-04T06:20:20;103097.0;;;4.58;64.66
36834;BME280;48003;52.084;5.224;2023-04-04T06:21:57;103095.0;;;4.63;64.28
36834;BME280;48003;52.084;5.224;2023-04-04T06:23:33;103092.0;;;4.67;63.91
36834;BME280;48003;52.084;5.224;2023-04-04T06:26:45;103091.00000000001;;;4.7;63.79
36834;BME280;48003;52.084;5.224;2023-04-04T06:28:21;103083.99999999999;;;4.72;63.92
36834;BME280;48003;52.084;5.224;2023-04-04T06:29:57;103081.0;;;4.72;63.85
36834;BME280;48003;52.084;5.224;2023-04-04T06:33:10;103091.00000000001;;;4.76;63.7
36834;BME280;48003;52.084;5.224;2023-04-04T06:34:46;103083.0;;;4.78;63.77
36834;BME280;48003;52.084;5.224;2023-04-04T06:36:22;103079.0;;;4.8;63.57
36834;BME280;48003;52.084;5.224;2023-04-04T06:39:34;103079.0;;;4.86;63.57
36834;BME280;48003;52.084;5.224;2023-04-04T06:41:10;103086.99999999999;;;4.89;63.14
36834;BME280;48003;52.084;5.224;2023-04-04T06:42:47;103092.0;;;4.95;63.18
36834;BME280;48003;52.084;5.224;2023-04-04T06:46:00;103091.00000000001;;;4.99;63.31
36834;BME280;48003;52.084;5.224;2023-04-04T06:47:36;103093.0;;;5.03;62.96
36834;BME280;48003;52.084;5.224;2023-04-04T06:49:12;103101.0;;;5.12;62.83
36834;BME280;48003;52.084;5.224;2023-04-04T06:50:48;103106.0;;;5.2;62.91
36834;BME280;48003;52.084;5.224;2023-04-04T06:54:00;103102.0;;;5.28;62.46
36834;BME280;48003;52.084;5.224;2023-04-04T06:55:37;103108.99999999999;;;5.32;62.33
36834;BME280;48003;52.084;5.224;2023-04-04T06:57:13;103109.99999999999;;;5.37;61.81
36834;BME280;48003;52.084;5.224;2023-04-04T07:00:25;103114.00000000001;;;5.42;61.38
36834;BME280;48003;52.084;5.224;2023-04-04T07:02:01;103111.99999999999;;;5.46;61.41
36834;BME280;48003;52.084;5.224;2023-04-04T07:03:37;103116.00000000001;;;5.49;61.37
36834;BME280;48003;52.084;5.224;2023-04-04T07:06:50;103115.00000000001;;;5.53;61.29
36834;BME280;48003;52.084;5.224;2023-04-04T07:08:28;103111.99999999999;;;5.56;61.31
36834;BME280;48003;52.084;5.224;2023-04-04T07:10:05;103106.0;;;5.6;60.84
36834;BME280;48003;52.084;5.224;2023-04-04T07:11:41;103106.0;;;5.66;60.77
36834;BME280;48003;52.084;5.224;2023-04-04T07:14:53;103103.0;;;5.7;60.24
36834;BME280;48003;52.084;5.224;2023-04-04T07:16:30;103108.0;;;5.73;60.64
36834;BME280;48003;52.084;5.224;2023-04-04T07:18:06;103113.00000000001;;;5.82;60.08
36834;BME280;48003;52.084;5.224;2023-04-04T07:21:18;103109.99999999999;;;5.93;59.59
36834;BME280;48003;52.084;5.224;2023-04-04T07:22:54;103111.99999999999;;;5.98;59.93
36834;BME280;48003;52.084;5.224;2023-04-04T07:24:30;103114.00000000001;;;6.0;59.75
36834;BME280;48003;52.084;5.224;2023-04-04T07:27:43;103121.0;;;6.12;59.11
36834;BME280;48003;52.084;5.224;2023-04-04T07:29:19;103118.0;;;6.21;59.21
36834;BME280;48003;52.084;5.224;2023-04-04T07:30:58;103119.0;;;6.25;58.75
36834;BME280;48003;52.084;5.224;2023-04-04T07:32:34;103109.99999999999;;;6.33;58.63
36834;BME280;48003;52.084;5.224;2023-04-04T07:35:46;103107.0;;;6.42;58.17
36834;BME280;48003;52.084;5.224;2023-04-04T07:37:23;103106.0;;;6.46;58.17
36834;BME280;48003;52.084;5.224;2023-04-04T07:42:11;103102.0;;;6.56;56.44
36834;BME280;48003;52.084;5.224;2023-04-04T07:43:47;103107.0;;;6.61;56.77
36834;BME280;48003;52.084;5.224;2023-04-04T07:45:22;103104.0;;;6.71;56.27
36834;BME280;48003;52.084;5.224;2023-04-04T07:48:34;103105.0;;;6.85;55.62
36834;BME280;48003;52.084;5.224;2023-04-04T07:50:10;103100.0;;;6.97;55.22
36834;BME280;48003;52.084;5.224;2023-04-04T07:51:47;103097.0;;;7.11;54.68
36834;BME280;48003;52.084;5.224;2023-04-04T07:54:58;103096.0;;;7.1;55.64
36834;BME280;48003;52.084;5.224;2023-04-04T07:56:35;103092.0;;;7.17;54.56
36834;BME280;48003;52.084;5.224;2023-04-04T07:58:10;103091.00000000001;;;7.3;53.97
36834;BME280;48003;52.084;5.224;2023-04-04T07:59:46;103094.0;;;7.43;53.23
36834;BME280;48003;52.084;5.224;2023-04-04T08:02:58;103090.00000000001;;;7.43;53.33
36834;BME280;48003;52.084;5.224;2023-04-04T08:04:34;103089.00000000001;;;7.5;53.3
36834;BME280;48003;52.084;5.224;2023-04-04T08:06:11;103083.99999999999;;;7.53;52.5
36834;BME280;48003;52.084;5.224;2023-04-04T08:09:24;103088.00000000001;;;7.59;52.26
36834;BME280;48003;52.084;5.224;2023-04-04T08:11:00;103086.99999999999;;;7.64;51.7
36834;BME280;48003;52.084;5.224;2023-04-04T08:12:37;103092.0;;;7.73;48.92
36834;BME280;48003;52.084;5.224;2023-04-04T08:15:50;103088.00000000001;;;7.85;47.5
36834;BME280;48003;52.084;5.224;2023-04-04T08:17:26;103088.00000000001;;;7.9;46.17
36834;BME280;48003;52.084;5.224;2023-04-04T08:19:02;103091.00000000001;;;8.01;45.95
36834;BME280;48003;52.084;5.224;2023-04-04T08:22:14;103092.0;;;7.96;47.36
36834;BME280;48003;52.084;5.224;2023-04-04T08:23:50;103089.00000000001;;;7.95;47.33
36834;BME280;48003;52.084;5.224;2023-04-04T08:25:26;103084.99999999999;;;7.98;47.22
36834;BME280;48003;52.084;5.224;2023-04-04T08:27:02;103083.99999999999;;;8.03;47.18
36834;BME280;48003;52.084;5.224;2023-04-04T08:30:14;103082.0;;;8.13;46.98
36834;BME280;48003;52.084;5.224;2023-04-04T08:31:50;103080.0;;;8.17;46.35
36834;BME280;48003;52.084;5.224;2023-04-04T08:33:26;103075.0;;;8.17;46.98
36834;BME280;48003;52.084;5.224;2023-04-04T08:36:38;103073.0;;;8.22;47.1
36834;BME280;48003;52.084;5.224;2023-04-04T08:38:14;103074.0;;;8.36;46.61
36834;BME280;48003;52.084;5.224;2023-04-04T08:39:50;103075.0;;;8.4;46.34
36834;BME280;48003;52.084;5.224;2023-04-04T08:43:03;103073.0;;;8.43;45.22
36834;BME280;48003;52.084;5.224;2023-04-04T08:44:40;103069.0;;;8.56;45.41
36834;BME280;48003;52.084;5.224;2023-04-04T08:46:20;103069.0;;;8.58;45.07
36834;BME280;48003;52.084;5.224;2023-04-04T08:47:57;103066.00000000001;;;8.66;45.98
36834;BME280;48003;52.084;5.224;2023-04-04T08:51:14;103067.0;;;8.68;44.69
36834;BME280;48003;52.084;5.224;2023-04-04T08:52:52;103066.00000000001;;;8.73;44.75
36834;BME280;48003;52.084;5.224;2023-04-04T08:54:29;103067.0;;;8.82;44.58
36834;BME280;48003;52.084;5.224;2023-04-04T08:57:42;103067.0;;;8.85;45.23
36834;BME280;48003;52.084;5.224;2023-04-04T08:59:19;103064.00000000001;;;8.93;44.7
36834;BME280;48003;52.084;5.224;2023-04-04T09:00:55;103064.00000000001;;;8.94;45.46
36834;BME280;48003;52.084;5.224;2023-04-04T09:02:35;103067.0;;;8.96;43.73
36834;BME280;48003;52.084;5.224;2023-04-04T09:05:52;103066.00000000001;;;9.06;43.54
36834;BME280;48003;52.084;5.224;2023-04-04T09:07:29;103065.00000000001;;;9.11;43.51
36834;BME280;48003;52.084;5.224;2023-04-04T09:09:06;103069.0;;;9.16;43.49
36834;BME280;48003;52.084;5.224;2023-04-04T09:12:21;103069.0;;;9.18;42.62
36834;BME280;48003;52.084;5.224;2023-04-04T09:13:57;103067.0;;;9.16;42.81
36834;BME280;48003;52.084;5.224;2023-04-04T09:15:35;103068.0;;;9.3;42.12
36834;BME280;48003;52.084;5.224;2023-04-04T09:17:13;103068.0;;;9.32;43.23
36834;BME280;48003;52.084;5.224;2023-04-04T09:20:34;103063.00000000001;;;9.42;42.44
36834;BME280;48003;52.084;5.224;2023-04-04T09:22:14;103067.0;;;9.48;42.33
36834;BME280;48003;52.084;5.224;2023-04-04T09:23:57;103074.0;;;9.64;41.42
36834;BME280;48003;52.084;5.224;2023-04-04T09:25:34;103071.0;;;9.68;41.67
36834;BME280;48003;52.084;5.224;2023-04-04T09:28:51;103067.0;;;9.77;42.28
36834;BME280;48003;52.084;5.224;2023-04-04T09:30:27;103071.0;;;9.88;41.57
36834;BME280;48003;52.084;5.224;2023-04-04T09:32:06;103070.0;;;9.76;40.81
36834;BME280;48003;52.084;5.224;2023-04-04T09:35:18;103068.0;;;9.96;42.03
36834;BME280;48003;52.084;5.224;2023-04-04T09:36:55;103076.0;;;10.08;40.94
36834;BME280;48003;52.084;5.224;2023-04-04T09:38:35;103061.99999999999;;;10.19;41.87
36834;BME280;48003;52.084;5.224;2023-04-04T09:40:13;103064.00000000001;;;10.18;41.46
36834;BME280;48003;52.084;5.224;2023-04-04T09:43:29;103063.00000000001;;;10.32;42.34
36834;BME280;48003;52.084;5.224;2023-04-04T09:45:06;103058.0;;;10.37;41.03
36834;BME280;48003;52.084;5.224;2023-04-04T09:46:43;103057.0;;;10.42;41.52
36834;BME280;48003;52.084;5.224;2023-04-04T09:50:06;103051.0;;;10.48;41.22
36834;BME280;48003;52.084;5.224;2023-04-04T09:51:47;103046.0;;;10.5;40.75
36834;BME280;48003;52.084;5.224;2023-04-04T09:53:24;103050.0;;;10.59;40.36
36834;BME280;48003;52.084;5.224;2023-04-04T09:55:01;103049.0;;;10.62;39.65
36834;BME280;48003;52.084;5.224;2023-04-04T09:58:17;103047.0;;;10.68;40.04
36834;BME280;48003;52.084;5.224;2023-04-04T09:59:56;103042.0;;;10.69;41.42
36834;BME280;48003;52.084;5.224;2023-04-04T10:01:33;103041.00000000001;;;10.8;39.71
36834;BME280;48003;52.084;5.224;2023-04-04T10:04:48;103045.0;;;10.86;39.24
36834;BME280;48003;52.084;5.224;2023-04-04T10:06:24;103045.0;;;10.96;39.21
36834;BME280;48003;52.084;5.224;2023-04-04T10:08:12;103039.00000000001;;;11.02;39.12
36834;BME280;48003;52.084;5.224;2023-04-04T10:09:49;103042.0;;;10.79;39.26
36834;BME280;48003;52.084;5.224;2023-04-04T10:13:05;103033.99999999999;;;11.07;39.29
36834;BME280;48003;52.084;5.224;2023-04-04T10:14:41;103036.99999999999;;;10.06;39.67
36834;BME280;48003;52.084;5.224;2023-04-04T10:16:17;103033.0;;;10.06;40.37
36834;BME280;48003;52.084;5.224;2023-04-04T10:17:53;103031.0;;;10.56;40.03
36834;BME280;48003;52.084;5.224;2023-04-04T10:21:09;103032.0;;;10.57;39.89
36834;BME280;48003;52.084;5.224;2023-04-04T10:22:45;103028.0;;;10.48;40.14
36834;BME280;48003;52.084;5.224;2023-04-04T10:24:21;103031.0;;;10.88;40.01
36834;BME280;48003;52.084;5.224;2023-04-04T10:27:33;103027.0;;;10.71;40.04
36834;BME280;48003;52.084;5.224;2023-04-04T10:29:09;103032.0;;;11.06;39.03
36834;BME280;48003;52.084;5.224;2023-04-04T10:30:48;103031.0;;;11.35;39.56
36834;BME280;48003;52.084;5.224;2023-04-04T10:34:27;103029.0;;;11.47;40.32
36834;BME280;48003;52.084;5.224;2023-04-04T10:36:08;103026.0;;;11.54;39.65
36834;BME280;48003;52.084;5.224;2023-04-04T10:37:51;103026.0;;;11.6;39.53
36834;BME280;48003;52.084;5.224;2023-04-04T10:39:35;103022.0;;;11.46;38.9
36834;BME280;48003;52.084;5.224;2023-04-04T10:41:13;103018.0;;;11.7;38.69
36834;BME280;48003;52.084;5.224;2023-04-04T10:44:28;103014.00000000001;;;11.85;39.18
36834;BME280;48003;52.084;5.224;2023-04-04T10:46:08;103011.99999999999;;;11.78;38.83
36834;BME280;48003;52.084;5.224;2023-04-04T10:47:49;103013.00000000001;;;11.85;39.62
36834;BME280;48003;52.084;5.224;2023-04-04T10:49:26;103007.0;;;11.95;39.08
36834;BME280;48003;52.084;5.224;2023-04-04T10:52:43;103000.0;;;12.07;38.82
36834;BME280;48003;52.084;5.224;2023-04-04T10:54:20;103001.0;;;12.15;38.93
36834;BME280;48003;52.084;5.224;2023-04-04T10:55:55;102996.0;;;12.28;38.89
36834;BME280;48003;52.084;5.224;2023-04-04T10:59:15;102991.00000000001;;;12.47;37.89